createdAt,value
2023-03-06T00:01:18.314Z,7.49
2023-03-06T00:03:57.196Z,7.48
2023-03-06T00:06:43.919Z,7.43
2023-03-06T00:09:20.750Z,7.46
2023-03-06T00:11:58.214Z,7.25
2023-03-06T00:14:40.015Z,7.29
2023-03-06T00:17:22.522Z,7.38
2023-03-06T00:20:02.210Z,7.33
2023-03-06T00:22:45.014Z,7.32
2023-03-06T00:25:26.075Z,7.18
2023-03-06T00:28:01.573Z,7.31
2023-03-06T00:30:41.730Z,7.27
2023-03-06T00:36:06.482Z,7.15
2023-03-06T00:38:54.007Z,7.06
2023-03-06T00:41:33.870Z,7.04
2023-03-06T00:44:15.387Z,6.93
2023-03-06T00:47:05.925Z,6.92
2023-03-06T00:49:39.131Z,6.83
2023-03-06T00:52:18.424Z,6.81
2023-03-06T00:54:58.797Z,6.73
2023-03-06T00:57:41.361Z,6.65
2023-03-06T01:00:27.722Z,6.63
2023-03-06T01:03:02.049Z,6.54
2023-03-06T01:05:43.977Z,6.55
2023-03-06T01:08:30.473Z,6.50
2023-03-06T01:11:14.822Z,6.46
2023-03-06T01:13:58.332Z,6.39
2023-03-06T01:16:35.634Z,6.36
2023-03-06T01:19:13.268Z,6.30
2023-03-06T01:21:53.538Z,6.28
2023-03-06T01:24:33.322Z,6.20
2023-03-06T01:27:26.362Z,6.13
2023-03-06T01:30:02.693Z,6.05
2023-03-06T01:32:43.044Z,6.01
2023-03-06T01:35:20.995Z,5.99
2023-03-06T01:37:57.421Z,5.93
2023-03-06T01:40:39.971Z,5.95
2023-03-06T01:43:41.900Z,5.88
2023-03-06T01:46:43.670Z,5.84
2023-03-06T01:49:49.506Z,5.86
2023-03-06T01:52:26.237Z,5.68
2023-03-06T01:55:07.784Z,5.83
2023-03-06T01:57:51.445Z,5.71
2023-03-06T02:00:32.696Z,5.82
2023-03-06T02:03:15.498Z,5.82
2023-03-06T02:05:55.154Z,5.76
2023-03-06T02:08:32.421Z,5.74
2023-03-06T02:11:22.390Z,5.72
2023-03-06T02:14:02.323Z,5.69
2023-03-06T02:16:50.286Z,5.46
2023-03-06T02:19:42.354Z,5.64
2023-03-06T02:22:22.198Z,5.66
2023-03-06T02:25:09.875Z,5.66
2023-03-06T02:27:51.895Z,5.65
2023-03-06T02:30:35.500Z,5.62
2023-03-06T02:33:15.313Z,5.55
2023-03-06T02:35:57.275Z,5.52
2023-03-06T02:38:41.244Z,5.60
2023-03-06T02:41:20.585Z,5.61
2023-03-06T02:44:07.699Z,5.63
2023-03-06T02:46:53.154Z,5.63
2023-03-06T02:49:31.053Z,5.60
2023-03-06T02:52:08.313Z,5.58
2023-03-06T02:54:43.397Z,5.55
2023-03-06T02:57:28.228Z,5.52
2023-03-06T03:00:16.510Z,5.52
2023-03-06T03:02:54.979Z,5.51
2023-03-06T03:05:51.184Z,5.49
2023-03-06T03:11:24.435Z,5.41
2023-03-06T03:14:03.835Z,5.43
2023-03-06T03:16:53.134Z,5.40
2023-03-06T03:19:35.402Z,5.37
2023-03-06T03:22:19.421Z,5.34
2023-03-06T03:24:54.886Z,5.27
2023-03-06T03:27:30.043Z,5.26
2023-03-06T03:30:08.882Z,5.28
2023-03-06T03:32:54.315Z,5.25
2023-03-06T03:35:31.452Z,5.20
2023-03-06T03:38:10.484Z,5.21
2023-03-06T03:40:46.917Z,5.18
2023-03-06T03:43:28.849Z,5.10
2023-03-06T03:46:11.950Z,5.18
2023-03-06T03:48:59.735Z,5.21
2023-03-06T03:51:40.819Z,5.20
2023-03-06T03:54:19.087Z,5.21
2023-03-06T03:57:02.547Z,5.14
2023-03-06T03:59:41.764Z,5.29
2023-03-06T04:02:41.815Z,5.31
2023-03-06T04:05:38.593Z,5.32
2023-03-06T04:08:27.510Z,5.17
2023-03-06T04:11:07.860Z,5.21
2023-03-06T04:13:46.116Z,5.20
2023-03-06T04:16:36.064Z,5.20
2023-03-06T04:19:25.947Z,5.17
2023-03-06T04:22:02.481Z,5.10
2023-03-06T04:24:47.853Z,5.09
2023-03-06T04:27:28.358Z,4.99
2023-03-06T04:30:10.763Z,4.99
2023-03-06T04:33:05.248Z,4.99
2023-03-06T04:35:42.842Z,4.64
2023-03-06T04:38:37.492Z,5.03
2023-03-06T04:41:17.816Z,4.99
2023-03-06T04:44:01.593Z,5.00
2023-03-06T04:46:42.667Z,4.99
2023-03-06T04:49:17.765Z,4.88
2023-03-06T04:51:50.933Z,4.87
2023-03-06T04:54:30.103Z,4.84
2023-03-06T04:57:04.200Z,4.81
2023-03-06T04:59:42.430Z,4.77
2023-03-06T05:02:18.264Z,4.69
2023-03-06T05:04:57.758Z,4.62
2023-03-06T05:07:51.709Z,4.57
2023-03-06T05:10:27.053Z,4.46
2023-03-06T05:13:07.950Z,4.51
2023-03-06T05:15:46.997Z,4.52
2023-03-06T05:18:23.125Z,4.53
2023-03-06T05:21:02.360Z,4.55
2023-03-06T05:23:43.351Z,4.53
2023-03-06T05:29:17.205Z,4.54
2023-03-06T05:31:55.701Z,4.57
2023-03-06T05:34:31.786Z,4.57
2023-03-06T05:37:06.996Z,4.59
2023-03-06T05:39:58.021Z,4.45
2023-03-06T05:42:52.916Z,4.71
2023-03-06T05:45:33.374Z,4.72
2023-03-06T05:48:16.515Z,4.71
2023-03-06T05:51:06.239Z,4.70
2023-03-06T05:53:42.962Z,4.76
2023-03-06T05:56:20.864Z,4.80
2023-03-06T05:59:09.784Z,4.84
2023-03-06T06:01:45.489Z,4.77
2023-03-06T06:04:33.562Z,4.82
2023-03-06T06:07:08.027Z,4.92
2023-03-06T06:09:40.221Z,4.97
2023-03-06T06:12:17.649Z,4.99
2023-03-06T06:15:04.616Z,4.89
2023-03-06T06:17:46.685Z,5.16
2023-03-06T06:20:24.319Z,5.16
2023-03-06T06:22:56.167Z,5.22
2023-03-06T06:25:34.192Z,5.21
2023-03-06T06:28:08.652Z,5.17
2023-03-06T06:30:56.315Z,5.47
2023-03-06T06:33:30.565Z,5.49
2023-03-06T06:36:09.566Z,5.62
2023-03-06T06:38:46.885Z,5.76
2023-03-06T06:41:50.633Z,5.80
2023-03-06T06:44:22.065Z,5.91
2023-03-06T06:47:24.530Z,5.99
2023-03-06T06:50:03.960Z,6.12
2023-03-06T06:52:43.860Z,5.99
2023-03-06T06:55:19.880Z,6.32
2023-03-06T06:58:01.332Z,6.42
2023-03-06T07:00:40.230Z,6.52
2023-03-06T07:03:30.137Z,6.63
2023-03-06T07:06:07.709Z,6.71
2023-03-06T07:08:39.405Z,6.72
2023-03-06T07:11:29.114Z,6.86
2023-03-06T07:14:09.312Z,6.97
2023-03-06T07:16:44.220Z,7.03
2023-03-06T07:19:29.697Z,7.13
2023-03-06T07:22:24.174Z,7.20
2023-03-06T07:25:00.771Z,7.28
2023-03-06T07:27:42.572Z,7.40
2023-03-06T07:30:18.518Z,7.48
2023-03-06T07:32:55.856Z,7.56
2023-03-06T07:35:45.245Z,7.65
2023-03-06T07:38:24.664Z,7.64
2023-03-06T07:41:01.084Z,7.77
2023-03-06T07:43:35.805Z,7.85
2023-03-06T07:46:20.860Z,7.98
2023-03-06T07:48:57.807Z,7.96
2023-03-06T07:51:36.473Z,7.97
2023-03-06T07:54:14.990Z,8.05
2023-03-06T07:56:46.836Z,8.08
2023-03-06T07:59:21.326Z,8.22
2023-03-06T08:01:57.237Z,8.31
2023-03-06T08:04:36.226Z,8.33
2023-03-06T08:07:20.970Z,8.44
2023-03-06T08:09:58.733Z,8.52
2023-03-06T08:12:39.097Z,8.62
2023-03-06T08:15:26.549Z,8.71
2023-03-06T08:18:10.697Z,8.87
2023-03-06T08:20:43.219Z,8.95
2023-03-06T08:23:33.991Z,9.03
2023-03-06T08:26:13.086Z,9.24
2023-03-06T08:28:51.163Z,9.37
2023-03-06T08:31:31.761Z,9.45
2023-03-06T08:34:09.973Z,9.51
2023-03-06T08:36:52.596Z,9.66
2023-03-06T08:39:40.566Z,9.58
2023-03-06T08:42:20.844Z,9.80
2023-03-06T08:45:01.053Z,9.78
2023-03-06T08:47:39.579Z,9.85
2023-03-06T08:50:32.556Z,9.84
2023-03-06T08:53:10.679Z,9.90
2023-03-06T08:56:05.559Z,9.92
2023-03-06T08:58:46.629Z,10.01
2023-03-06T09:01:25.103Z,10.15
2023-03-06T09:03:59.583Z,10.24
2023-03-06T09:06:40.957Z,10.25
2023-03-06T09:09:21.135Z,10.31
2023-03-06T09:12:01.138Z,10.13
2023-03-06T09:14:40.891Z,10.35
2023-03-06T09:17:17.495Z,10.42
2023-03-06T09:19:55.372Z,10.42
2023-03-06T09:22:42.716Z,10.49
2023-03-06T09:25:24.209Z,10.22
2023-03-06T09:28:11.338Z,10.59
2023-03-06T09:30:54.481Z,10.64
2023-03-06T09:33:29.527Z,10.69
2023-03-06T09:36:11.273Z,10.69
2023-03-06T09:38:48.342Z,10.84
2023-03-06T09:41:38.721Z,10.95
2023-03-06T09:44:29.053Z,11.04
2023-03-06T09:48:02.490Z,11.15
2023-03-06T09:50:55.551Z,11.32
2023-03-06T09:53:46.305Z,11.52
2023-03-06T09:56:23.596Z,11.64
2023-03-06T09:59:04.946Z,11.82
2023-03-06T10:01:58.769Z,11.92
2023-03-06T10:04:42.864Z,11.93
2023-03-06T10:07:26.889Z,11.88
2023-03-06T10:10:11.972Z,11.94
2023-03-06T10:13:04.755Z,11.96
2023-03-06T10:15:43.698Z,11.92
2023-03-06T10:21:51.495Z,11.87
2023-03-06T10:25:04.626Z,11.90
2023-03-06T10:27:52.998Z,12.01
2023-03-06T10:30:50.939Z,12.05
2023-03-06T10:33:47.128Z,12.12
2023-03-06T10:36:25.706Z,12.23
2023-03-06T10:39:07.809Z,12.27
2023-03-06T10:41:45.296Z,12.34
2023-03-06T10:44:29.168Z,12.37
2023-03-06T10:47:08.105Z,12.47
2023-03-06T10:50:06.674Z,12.55
2023-03-06T10:52:44.032Z,12.66
2023-03-06T10:55:41.843Z,12.72
2023-03-06T10:58:30.609Z,12.70
2023-03-06T11:01:12.538Z,12.76
2023-03-06T11:03:58.076Z,12.76
2023-03-06T11:06:44.146Z,12.84
2023-03-06T11:09:26.018Z,12.88
2023-03-06T11:12:28.343Z,13.01
2023-03-06T11:15:22.698Z,13.24
2023-03-06T11:18:09.273Z,13.40
2023-03-06T11:20:56.940Z,13.58
2023-03-06T11:24:15.226Z,13.70
2023-03-06T11:27:08.625Z,13.87
2023-03-06T11:29:48.169Z,14.05
2023-03-06T11:32:36.311Z,14.05
2023-03-06T11:35:29.879Z,14.06
2023-03-06T11:38:15.720Z,14.02
2023-03-06T11:41:04.387Z,14.03
2023-03-06T11:43:42.792Z,14.03
2023-03-06T11:46:25.577Z,13.99
2023-03-06T11:49:12.545Z,13.93
2023-03-06T11:51:55.141Z,14.01
2023-03-06T11:54:32.454Z,14.06
2023-03-06T11:57:26.875Z,14.05
2023-03-06T12:00:23.747Z,14.01
2023-03-06T12:03:30.807Z,14.08
2023-03-06T12:06:20.055Z,14.11
2023-03-06T12:09:10.156Z,14.26
2023-03-06T12:11:50.576Z,14.27
2023-03-06T12:14:54.185Z,14.29
2023-03-06T12:18:00.658Z,14.37
2023-03-06T12:21:11.071Z,14.57
2023-03-06T12:24:07.368Z,14.63
2023-03-06T12:27:02.968Z,14.60
2023-03-06T12:30:02.397Z,14.74
2023-03-06T12:32:59.379Z,14.82
2023-03-06T12:36:24.990Z,14.91
2023-03-06T12:39:24.483Z,14.88
2023-03-06T12:42:47.725Z,14.90
2023-03-06T12:45:34.224Z,15.08
2023-03-06T12:48:08.880Z,15.14
2023-03-06T12:50:57.340Z,15.19
2023-03-06T12:53:32.954Z,15.13
2023-03-06T12:56:07.950Z,15.07
2023-03-06T12:58:55.558Z,15.01
2023-03-06T13:02:09.241Z,14.95
2023-03-06T13:05:10.978Z,14.89
2023-03-06T13:08:05.264Z,14.99
2023-03-06T13:10:42.926Z,15.15
2023-03-06T13:13:34.986Z,15.31
2023-03-06T13:16:28.925Z,15.40
2023-03-06T13:19:23.272Z,15.48
2023-03-06T13:22:22.116Z,15.44
2023-03-06T13:25:40.030Z,15.32
2023-03-06T13:28:30.341Z,15.23
2023-03-06T13:31:18.112Z,15.23
2023-03-06T13:34:09.876Z,15.22
2023-03-06T13:36:45.303Z,15.24
2023-03-06T13:39:26.825Z,15.29
2023-03-06T13:42:02.937Z,15.34
2023-03-06T13:44:55.336Z,15.44
2023-03-06T13:48:14.195Z,15.46
2023-03-06T13:50:45.627Z,15.33
2023-03-06T13:54:07.756Z,15.40
2023-03-06T13:57:40.559Z,15.50
2023-03-06T14:01:04.491Z,15.45
2023-03-06T14:04:09.247Z,15.38
2023-03-06T14:07:13.132Z,15.32
2023-03-06T14:10:06.084Z,15.29
2023-03-06T14:12:48.064Z,15.27
2023-03-06T14:15:28.444Z,15.26
2023-03-06T14:18:05.942Z,15.26
2023-03-06T14:20:49.806Z,15.28
2023-03-06T14:23:44.020Z,15.34
2023-03-06T14:26:23.333Z,15.44
2023-03-06T14:29:06.625Z,15.39
2023-03-06T14:31:46.383Z,15.39
2023-03-06T14:34:27.811Z,15.38
2023-03-06T14:37:08.032Z,15.33
2023-03-06T14:39:50.327Z,15.24
2023-03-06T14:42:24.318Z,15.19
2023-03-06T14:45:28.125Z,15.07
2023-03-06T14:48:08.488Z,14.99
2023-03-06T14:50:49.481Z,14.97
2023-03-06T14:53:23.904Z,14.97
2023-03-06T14:56:06.446Z,14.89
2023-03-06T14:58:48.413Z,14.83
2023-03-06T15:01:45.842Z,14.78
2023-03-06T15:04:35.271Z,14.80
2023-03-06T15:07:16.844Z,14.81
2023-03-06T15:09:53.808Z,14.77
2023-03-06T15:12:46.466Z,14.81
2023-03-06T15:19:03.234Z,14.96
2023-03-06T15:21:43.206Z,15.11
2023-03-06T15:24:39.137Z,15.27
2023-03-06T15:27:25.646Z,15.40
2023-03-06T15:30:05.644Z,15.48
2023-03-06T15:32:52.227Z,15.48
2023-03-06T15:35:53.068Z,15.49
2023-03-06T15:38:40.273Z,15.46
2023-03-06T15:41:24.821Z,15.44
2023-03-06T15:44:03.427Z,15.36
2023-03-06T15:46:38.347Z,15.34
2023-03-06T15:49:24.003Z,15.27
2023-03-06T15:52:09.542Z,15.18
2023-03-06T15:54:44.823Z,15.05
2023-03-06T15:57:25.649Z,14.96
2023-03-06T15:59:56.691Z,14.86
2023-03-06T16:02:31.837Z,14.78
2023-03-06T16:05:03.189Z,14.67
2023-03-06T16:07:49.675Z,14.59
2023-03-06T16:10:30.089Z,14.52
2023-03-06T16:13:13.349Z,14.41
2023-03-06T16:15:57.570Z,14.37
2023-03-06T16:18:27.941Z,14.33
2023-03-06T16:21:02.275Z,14.29
2023-03-06T16:23:50.910Z,14.22
2023-03-06T16:29:32.006Z,14.14
2023-03-06T16:32:06.873Z,14.07
2023-03-06T16:34:39.342Z,14.04
2023-03-06T16:37:19.666Z,13.99
2023-03-06T16:40:07.034Z,13.92
2023-03-06T16:42:42.367Z,13.89
2023-03-06T16:45:21.391Z,13.89
2023-03-06T16:47:54.701Z,13.83
2023-03-06T16:50:32.205Z,13.85
2023-03-06T16:53:16.183Z,13.83
2023-03-06T16:56:00.357Z,13.82
2023-03-06T16:58:38.218Z,13.82
2023-03-06T17:01:12.045Z,13.64
2023-03-06T17:03:47.649Z,13.73
2023-03-06T17:06:21.064Z,13.65
2023-03-06T17:08:59.728Z,13.69
2023-03-06T17:11:46.122Z,13.64
2023-03-06T17:14:24.304Z,13.61
2023-03-06T17:16:59.263Z,13.60
2023-03-06T17:19:31.054Z,13.59
2023-03-06T17:22:07.233Z,13.53
2023-03-06T17:24:47.597Z,14.21
2023-03-06T17:27:31.070Z,15.41
2023-03-06T17:30:07.344Z,16.17
2023-03-06T17:32:37.766Z,16.90
2023-03-06T17:35:15.888Z,17.26
2023-03-06T17:37:50.008Z,17.43
2023-03-06T17:40:31.921Z,17.55
2023-03-06T17:43:06.105Z,17.72
2023-03-06T17:45:55.708Z,17.93
2023-03-06T17:48:28.260Z,18.08
2023-03-06T17:51:06.140Z,18.21
2023-03-06T17:53:37.093Z,18.36
2023-03-06T17:56:18.522Z,18.50
2023-03-06T17:59:02.532Z,18.72
2023-03-06T18:01:41.201Z,18.79
2023-03-06T18:04:22.022Z,18.56
2023-03-06T18:07:02.753Z,18.03
2023-03-06T18:09:32.816Z,17.59
2023-03-06T18:12:07.536Z,17.11
2023-03-06T18:14:43.320Z,16.62
2023-03-06T18:17:16.909Z,16.19
2023-03-06T18:19:54.387Z,15.81
2023-03-06T18:22:45.046Z,15.42
2023-03-06T18:25:19.700Z,15.06
2023-03-06T18:27:57.931Z,14.77
2023-03-06T18:30:36.126Z,14.58
2023-03-06T18:33:10.261Z,14.39
2023-03-06T18:35:44.341Z,14.21
2023-03-06T18:38:17.901Z,13.99
2023-03-06T18:40:55.487Z,13.83
2023-03-06T18:43:31.333Z,13.66
2023-03-06T18:46:17.821Z,13.56
2023-03-06T18:48:52.811Z,13.41
2023-03-06T18:51:29.286Z,13.32
2023-03-06T18:54:02.891Z,13.16
2023-03-06T18:56:38.695Z,13.03
2023-03-06T18:59:10.859Z,12.86
2023-03-06T19:01:49.797Z,12.71
2023-03-06T19:04:23.865Z,12.57
2023-03-06T19:07:00.248Z,12.43
2023-03-06T19:09:31.991Z,12.37
2023-03-06T19:12:07.144Z,12.29
2023-03-06T19:14:44.340Z,12.26
2023-03-06T19:17:22.847Z,12.22
2023-03-06T19:19:58.984Z,12.24
2023-03-06T19:22:37.691Z,12.22
2023-03-06T19:25:09.896Z,12.22
2023-03-06T19:27:49.789Z,12.22
2023-03-06T19:30:25.854Z,12.18
2023-03-06T19:33:10.615Z,12.29
2023-03-06T19:35:45.419Z,12.29
2023-03-06T19:38:28.896Z,12.28
2023-03-06T19:41:07.119Z,12.27
2023-03-06T19:43:47.081Z,12.19
2023-03-06T19:46:27.033Z,12.19
2023-03-06T19:49:16.320Z,12.20
2023-03-06T19:51:51.227Z,12.21
2023-03-06T19:54:23.847Z,12.22
2023-03-06T19:57:06.325Z,12.23
2023-03-06T19:59:40.533Z,12.14
2023-03-06T20:02:26.731Z,12.02
2023-03-06T20:05:03.180Z,11.99
2023-03-06T20:07:35.662Z,11.95
2023-03-06T20:10:09.410Z,11.96
2023-03-06T20:13:00.757Z,11.88
2023-03-06T20:15:35.263Z,11.78
2023-03-06T20:18:20.505Z,11.81
2023-03-06T20:21:10.593Z,11.77
2023-03-06T20:23:45.687Z,11.81
2023-03-06T20:26:20.481Z,11.88
2023-03-06T20:28:55.640Z,11.85
2023-03-06T20:31:30.963Z,11.87
2023-03-06T20:34:06.171Z,11.85
2023-03-06T20:36:50.861Z,11.78
2023-03-06T20:39:28.717Z,11.72
2023-03-06T20:42:00.912Z,11.71
2023-03-06T20:44:36.373Z,11.60
2023-03-06T20:47:14.270Z,11.35
2023-03-06T20:49:51.535Z,11.27
2023-03-06T20:52:32.096Z,11.21
2023-03-06T20:55:07.373Z,11.16
2023-03-06T20:57:42.233Z,11.14
2023-03-06T21:00:21.117Z,11.11
2023-03-06T21:03:00.393Z,11.02
2023-03-06T21:05:31.046Z,11.04
2023-03-06T21:08:09.274Z,11.11
2023-03-06T21:10:51.512Z,11.10
2023-03-06T21:13:25.282Z,11.11
2023-03-06T21:15:59.986Z,11.17
2023-03-06T21:18:32.445Z,11.21
2023-03-06T21:21:04.436Z,11.20
2023-03-06T21:23:43.921Z,11.29
2023-03-06T21:26:16.264Z,11.28
2023-03-06T21:28:53.856Z,11.33
2023-03-06T21:31:33.580Z,11.40
2023-03-06T21:34:14.336Z,11.33
2023-03-06T21:36:48.778Z,11.31
2023-03-06T21:39:35.561Z,11.27
2023-03-06T21:42:10.875Z,11.10
2023-03-06T21:44:44.864Z,10.79
2023-03-06T21:47:28.571Z,10.89
2023-03-06T21:50:08.721Z,10.81
2023-03-06T21:52:54.447Z,10.59
2023-03-06T21:55:49.667Z,10.40
2023-03-06T21:58:27.469Z,10.24
2023-03-06T22:01:11.937Z,10.13
2023-03-06T22:03:47.701Z,9.93
2023-03-06T22:06:25.568Z,9.76
2023-03-06T22:09:04.808Z,9.85
2023-03-06T22:11:55.030Z,9.91
2023-03-06T22:14:40.645Z,9.88
2023-03-06T22:17:18.259Z,10.03
2023-03-06T22:19:52.238Z,10.01
2023-03-06T22:22:32.492Z,10.04
2023-03-06T22:25:08.142Z,10.03
2023-03-06T22:28:01.232Z,9.86
2023-03-06T22:30:40.583Z,10.05
2023-03-06T22:33:15.840Z,10.06
2023-03-06T22:36:16.136Z,10.08
2023-03-06T22:39:00.234Z,10.09
2023-03-06T22:41:49.235Z,10.13
2023-03-06T22:44:28.325Z,10.12
2023-03-06T22:47:07.532Z,9.92
2023-03-06T22:49:41.050Z,10.09
2023-03-06T22:52:15.192Z,10.14
2023-03-06T22:54:56.778Z,10.11
2023-03-06T22:57:33.462Z,10.16
2023-03-06T23:00:24.201Z,10.10
2023-03-06T23:03:05.027Z,9.98
2023-03-06T23:05:36.965Z,10.13
2023-03-06T23:08:19.993Z,10.20
2023-03-06T23:11:00.709Z,10.27
2023-03-06T23:14:01.841Z,10.28
2023-03-06T23:17:02.804Z,10.29
2023-03-06T23:20:16.829Z,10.33
2023-03-06T23:23:15.129Z,10.34
2023-03-06T23:25:52.641Z,10.39
2023-03-06T23:28:30.161Z,10.17
2023-03-06T23:31:11.128Z,10.36
2023-03-06T23:34:05.716Z,10.42
2023-03-06T23:36:46.983Z,10.48
2023-03-06T23:39:23.229Z,10.46
2023-03-06T23:42:05.469Z,10.50
2023-03-06T23:44:42.341Z,10.52
2023-03-06T23:47:21.029Z,10.49
2023-03-06T23:50:07.578Z,10.43
2023-03-06T23:53:17.231Z,10.35
2023-03-06T23:55:58.089Z,10.35
2023-03-06T23:58:35.516Z,10.22
